Time;durP1;ratioP1;P1;durP2;ratioP2;P2;SDS_P1;SDS_P2;PMS_P1;PMS_P2;Temp;Humidity;BMP_temperature;BMP_pressure;BME280_temperature;BME280_humidity;BME280_pressure;Samples;Min_cycle;Max_cycle;Signal;HPM_P1;HPM_P2
2023/03/15 00:00:11;;;;;;;13.40;2.30;;;;;;;;;;4995338;28;20048;-76
2023/03/15 00:02:38;;;;;;;11.63;1.90;;;;;;;;;;5011171;28;20051;-76
2023/03/15 00:05:04;;;;;;;10.60;1.65;;;;;;;;;;5013344;28;20045;-76
2023/03/15 00:07:31;;;;;;;8.57;1.80;;;;;;;;;;5013158;28;20227;-74
2023/03/15 00:09:57;;;;;;;11.15;1.73;;;;;;;;;;5010560;28;20060;-75
2023/03/15 00:12:23;;;;;;;11.23;1.67;;;;;;;;;;5008390;28;20113;-75
2023/03/15 00:14:50;;;;;;;12.98;1.63;;;;;;;;;;5007512;28;20049;-75
2023/03/15 00:17:16;;;;;;;8.90;2.13;;;;;;;;;;5016057;28;20040;-76
2023/03/15 00:19:42;;;;;;;11.38;1.50;;;;;;;;;;5001335;28;20041;-75
2023/03/15 00:22:08;;;;;;;11.50;1.65;;;;;;;;;;5014982;28;20206;-76
2023/03/15 00:24:34;;;;;;;7.25;1.00;;;;;;;;;;5014170;28;20041;-75
2023/03/15 00:27:00;;;;;;;10.18;1.33;;;;;;;;;;5008160;28;20084;-75
2023/03/15 00:29:26;;;;;;;12.50;2.17;;;;;;;;;;4997044;28;20591;-75
2023/03/15 00:31:52;;;;;;;12.20;1.40;;;;;;;;;;5013265;28;20128;-76
2023/03/15 00:34:23;;;;;;;13.23;2.75;;;;;;;;;;5011718;28;20044;-75
2023/03/15 00:36:52;;;;;;;7.72;1.15;;;;;;;;;;5013692;28;20053;-75
2023/03/15 00:39:18;;;;;;;5.30;1.33;;;;;;;;;;4997975;28;20041;-77
2023/03/15 00:41:45;;;;;;;14.10;1.08;;;;;;;;;;5003806;28;20037;-77
2023/03/15 00:44:11;;;;;;;12.30;2.70;;;;;;;;;;5010802;28;20040;-76
2023/03/15 00:46:38;;;;;;;5.20;1.15;;;;;;;;;;4993309;28;20068;-76
2023/03/15 00:49:04;;;;;;;5.53;1.40;;;;;;;;;;5011375;28;20072;-74
2023/03/15 00:51:30;;;;;;;8.60;0.85;;;;;;;;;;5015601;28;20041;-75
2023/03/15 00:53:56;;;;;;;7.32;1.13;;;;;;;;;;4999934;28;20676;-74
2023/03/15 00:56:24;;;;;;;8.95;2.13;;;;;;;;;;5014123;28;20060;-76
2023/03/15 00:58:53;;;;;;;5.57;0.90;;;;;;;;;;4997209;28;20061;-75
2023/03/15 01:01:27;;;;;;;7.78;2.03;;;;;;;;;;5012133;28;20053;-76
2023/03/15 01:03:54;;;;;;;13.93;2.17;;;;;;;;;;4997614;28;20076;-76
2023/03/15 01:06:21;;;;;;;6.80;0.90;;;;;;;;;;5022210;28;20049;-75
2023/03/15 01:08:47;;;;;;;9.80;0.95;;;;;;;;;;4997358;28;20049;-75
2023/03/15 01:11:15;;;;;;;8.63;1.08;;;;;;;;;;4994185;28;20174;-75
2023/03/15 01:13:41;;;;;;;12.25;1.20;;;;;;;;;;5015698;28;20063;-75
2023/03/15 01:16:11;;;;;;;9.05;1.10;;;;;;;;;;5012733;28;20166;-76
2023/03/15 01:18:37;;;;;;;10.50;1.40;;;;;;;;;;5001050;28;20159;-75
2023/03/15 01:21:07;;;;;;;7.93;1.02;;;;;;;;;;5005704;28;20049;-76
2023/03/15 01:23:33;;;;;;;13.40;1.45;;;;;;;;;;5013143;28;20084;-76
2023/03/15 01:26:04;;;;;;;9.70;1.08;;;;;;;;;;4998394;28;20053;-76
2023/03/15 01:28:30;;;;;;;14.00;1.92;;;;;;;;;;5009847;28;20980;-76
2023/03/15 01:30:56;;;;;;;9.15;1.65;;;;;;;;;;5013244;28;20069;-76
2023/03/15 01:33:22;;;;;;;6.90;1.17;;;;;;;;;;5008825;28;20129;-76
2023/03/15 01:35:57;;;;;;;10.95;1.40;;;;;;;;;;5009250;28;20070;-76
2023/03/15 01:38:23;;;;;;;23.55;2.33;;;;;;;;;;5012695;28;20053;-76
2023/03/15 01:40:49;;;;;;;11.85;1.40;;;;;;;;;;5012304;28;20049;-76
2023/03/15 01:43:15;;;;;;;9.07;1.42;;;;;;;;;;5008138;28;20049;-76
2023/03/15 01:45:59;;;;;;;11.07;1.73;;;;;;;;;;5010593;28;20099;-76
2023/03/15 01:48:28;;;;;;;12.00;2.60;;;;;;;;;;5005046;28;20049;-76
2023/03/15 01:50:55;;;;;;;11.38;2.95;;;;;;;;;;5010114;28;20530;-76
2023/03/15 01:53:24;;;;;;;8.63;1.55;;;;;;;;;;5007083;28;20037;-76
2023/03/15 01:55:52;;;;;;;11.18;1.70;;;;;;;;;;5008908;28;20041;-76
2023/03/15 01:58:20;;;;;;;10.40;1.00;;;;;;;;;;5007066;28;20053;-76
2023/03/15 02:00:46;;;;;;;4.72;0.75;;;;;;;;;;4990360;28;20042;-77
2023/03/15 02:03:16;;;;;;;3.33;1.00;;;;;;;;;;5010657;28;20048;-77
2023/03/15 02:05:48;;;;;;;7.35;1.35;;;;;;;;;;4993675;28;20378;-78
2023/03/15 02:08:16;;;;;;;8.77;1.60;;;;;;;;;;5009164;28;20071;-79
2023/03/15 02:10:43;;;;;;;7.35;1.67;;;;;;;;;;4993182;28;20140;-78
2023/03/15 02:13:12;;;;;;;16.08;1.48;;;;;;;;;;5008706;28;20076;-78
2023/03/15 02:15:38;;;;;;;7.43;1.10;;;;;;;;;;4998470;28;20045;-78
2023/03/15 02:18:04;;;;;;;11.05;1.45;;;;;;;;;;5011122;28;20069;-78
2023/03/15 02:20:37;;;;;;;9.98;1.20;;;;;;;;;;4997924;28;20063;-78
2023/03/15 02:23:05;;;;;;;12.95;1.27;;;;;;;;;;4997655;28;20045;-78
2023/03/15 02:25:37;;;;;;;13.13;1.77;;;;;;;;;;5017066;28;20045;-78
2023/03/15 02:28:05;;;;;;;10.45;1.75;;;;;;;;;;5015385;28;20048;-77
2023/03/15 02:30:31;;;;;;;16.15;1.70;;;;;;;;;;5017344;28;20044;-76
2023/03/15 02:32:59;;;;;;;14.57;2.30;;;;;;;;;;5015883;28;20038;-77
2023/03/15 02:35:27;;;;;;;15.02;1.83;;;;;;;;;;5016794;28;20071;-77
2023/03/15 02:37:53;;;;;;;17.52;1.90;;;;;;;;;;5012356;28;20047;-77
2023/03/15 02:40:21;;;;;;;13.80;3.63;;;;;;;;;;4995754;28;20087;-77
2023/03/15 02:42:48;;;;;;;15.15;2.08;;;;;;;;;;4998832;28;21138;-77
2023/03/15 02:45:14;;;;;;;9.98;2.50;;;;;;;;;;5010209;28;20505;-78
2023/03/15 02:47:40;;;;;;;18.80;2.55;;;;;;;;;;5012412;28;20135;-77
2023/03/15 02:50:07;;;;;;;15.98;2.13;;;;;;;;;;5002313;28;20052;-78
2023/03/15 02:52:33;;;;;;;12.80;2.03;;;;;;;;;;4985060;28;20518;-78
2023/03/15 02:55:01;;;;;;;22.02;2.28;;;;;;;;;;5007095;28;20068;-77
2023/03/15 02:57:28;;;;;;;15.27;1.88;;;;;;;;;;5014689;28;20045;-78
2023/03/15 02:59:54;;;;;;;13.05;2.15;;;;;;;;;;4997145;28;20497;-77
2023/03/15 03:02:21;;;;;;;17.02;2.55;;;;;;;;;;5012202;28;20052;-78
2023/03/15 03:04:47;;;;;;;20.52;3.95;;;;;;;;;;5011625;28;20445;-78
2023/03/15 03:07:13;;;;;;;14.30;2.28;;;;;;;;;;4995136;28;20489;-78
2023/03/15 03:09:39;;;;;;;13.32;2.22;;;;;;;;;;4993810;28;20037;-77
2023/03/15 03:12:05;;;;;;;26.02;2.10;;;;;;;;;;4993307;28;20037;-78
2023/03/15 03:14:31;;;;;;;16.65;2.90;;;;;;;;;;4996159;28;20490;-78
2023/03/15 03:16:57;;;;;;;15.23;1.98;;;;;;;;;;5012917;28;20164;-77
2023/03/15 03:19:24;;;;;;;19.88;1.92;;;;;;;;;;4997105;28;20075;-77
2023/03/15 03:21:53;;;;;;;13.32;1.90;;;;;;;;;;5012890;28;20048;-78
2023/03/15 03:24:20;;;;;;;14.88;1.70;;;;;;;;;;4996882;28;20069;-77
2023/03/15 03:26:46;;;;;;;10.93;1.88;;;;;;;;;;4980536;28;20045;-77
2023/03/15 03:29:15;;;;;;;20.83;2.10;;;;;;;;;;4980190;28;20577;-78
2023/03/15 03:31:41;;;;;;;10.18;2.03;;;;;;;;;;4997459;28;20666;-77
2023/03/15 03:34:09;;;;;;;14.82;1.60;;;;;;;;;;4997308;28;20041;-78
2023/03/15 03:36:35;;;;;;;17.42;2.28;;;;;;;;;;5008350;28;20049;-78
2023/03/15 03:39:02;;;;;;;10.93;1.77;;;;;;;;;;4994633;28;20686;-78
2023/03/15 03:41:28;;;;;;;18.83;4.15;;;;;;;;;;4995666;28;20049;-77
2023/03/15 03:43:54;;;;;;;9.65;1.77;;;;;;;;;;4996113;28;21580;-78
2023/03/15 03:46:20;;;;;;;11.80;1.77;;;;;;;;;;4993637;28;20643;-78
2023/03/15 03:48:46;;;;;;;15.43;2.05;;;;;;;;;;4996416;28;20511;-77
2023/03/15 03:51:13;;;;;;;7.78;1.77;;;;;;;;;;4993490;28;20071;-78
2023/03/15 03:53:39;;;;;;;9.57;1.50;;;;;;;;;;4977533;28;20152;-79
2023/03/15 03:56:05;;;;;;;8.25;1.42;;;;;;;;;;4995206;28;20077;-78
2023/03/15 03:58:32;;;;;;;9.70;1.42;;;;;;;;;;4996170;28;20044;-78
2023/03/15 04:00:58;;;;;;;9.23;1.52;;;;;;;;;;4994601;28;20049;-78
2023/03/15 04:03:26;;;;;;;14.50;1.73;;;;;;;;;;5010456;28;20159;-78
2023/03/15 04:05:55;;;;;;;9.40;1.30;;;;;;;;;;5010671;28;20045;-78
2023/03/15 04:08:22;;;;;;;8.43;1.67;;;;;;;;;;5015152;28;20068;-77
2023/03/15 04:10:55;;;;;;;4.90;1.00;;;;;;;;;;5013902;28;20049;-78
2023/03/15 04:13:22;;;;;;;10.85;1.67;;;;;;;;;;5013248;28;20092;-78
2023/03/15 04:15:48;;;;;;;13.77;1.75;;;;;;;;;;4994932;28;20555;-79
2023/03/15 04:18:14;;;;;;;9.27;1.48;;;;;;;;;;5011584;28;20045;-78
2023/03/15 04:20:45;;;;;;;12.25;1.30;;;;;;;;;;4998285;28;20056;-78
2023/03/15 04:23:21;;;;;;;9.85;1.20;;;;;;;;;;4999389;28;20515;-78
2023/03/15 04:25:51;;;;;;;7.55;1.08;;;;;;;;;;5014607;28;20045;-78
2023/03/15 04:28:18;;;;;;;5.78;0.85;;;;;;;;;;4997287;28;20049;-79
2023/03/15 04:30:45;;;;;;;3.97;0.90;;;;;;;;;;5013344;28;20045;-78
2023/03/15 04:33:11;;;;;;;7.70;1.00;;;;;;;;;;5007705;28;20065;-78
2023/03/15 04:35:38;;;;;;;8.45;1.00;;;;;;;;;;5011734;28;20575;-79
2023/03/15 04:38:04;;;;;;;12.45;2.35;;;;;;;;;;5006374;28;20088;-79
2023/03/15 04:40:33;;;;;;;5.22;0.95;;;;;;;;;;5009776;28;20051;-78
2023/03/15 04:43:01;;;;;;;6.63;1.05;;;;;;;;;;4997114;28;20494;-78
2023/03/15 04:45:27;;;;;;;4.80;0.73;;;;;;;;;;4990770;28;20162;-78
2023/03/15 04:47:54;;;;;;;4.80;1.00;;;;;;;;;;4994872;28;21088;-79
2023/03/15 04:50:21;;;;;;;4.93;0.85;;;;;;;;;;5015247;28;20045;-78
2023/03/15 04:52:47;;;;;;;2.72;0.90;;;;;;;;;;4995216;28;20041;-78
2023/03/15 04:55:14;;;;;;;2.58;0.70;;;;;;;;;;5012156;28;20059;-80
2023/03/15 04:57:40;;;;;;;3.03;0.60;;;;;;;;;;4999588;28;20135;-81
2023/03/15 05:00:08;;;;;;;1.45;0.68;;;;;;;;;;4993629;28;20049;-81
2023/03/15 05:02:34;;;;;;;1.00;0.40;;;;;;;;;;4988211;28;20041;-78
2023/03/15 05:05:01;;;;;;;5.70;1.15;;;;;;;;;;4987810;28;20073;-81
2023/03/15 05:07:27;;;;;;;6.93;0.90;;;;;;;;;;4996364;28;21677;-82
2023/03/15 05:09:53;;;;;;;3.85;0.70;;;;;;;;;;5010761;28;20134;-82
2023/03/15 05:12:19;;;;;;;3.53;1.15;;;;;;;;;;4985219;28;20040;-83
2023/03/15 05:14:45;;;;;;;5.82;0.70;;;;;;;;;;4995853;28;20130;-81
2023/03/15 05:17:11;;;;;;;4.50;1.15;;;;;;;;;;5008120;28;20046;-85
2023/03/15 05:19:37;;;;;;;4.10;0.70;;;;;;;;;;4992443;28;20581;-81
2023/03/15 05:22:03;;;;;;;4.15;0.70;;;;;;;;;;4994115;28;20080;-82
2023/03/15 05:24:30;;;;;;;7.57;1.08;;;;;;;;;;4993044;28;20037;-82
2023/03/15 05:26:56;;;;;;;8.18;1.45;;;;;;;;;;4997452;28;20111;-81
2023/03/15 05:29:22;;;;;;;5.40;1.70;;;;;;;;;;5010374;28;20048;-80
2023/03/15 05:31:48;;;;;;;8.68;1.98;;;;;;;;;;5006948;28;20069;-81
2023/03/15 05:34:15;;;;;;;3.83;1.20;;;;;;;;;;4990435;28;20044;-80
2023/03/15 05:36:41;;;;;;;4.97;0.95;;;;;;;;;;5000205;28;20044;-81
2023/03/15 05:39:08;;;;;;;4.95;0.80;;;;;;;;;;4994173;28;20631;-82
2023/03/15 05:41:34;;;;;;;5.78;1.17;;;;;;;;;;5004778;28;20046;-80
2023/03/15 05:44:00;;;;;;;10.30;1.25;;;;;;;;;;5011070;28;20394;-83
2023/03/15 05:46:26;;;;;;;7.55;1.55;;;;;;;;;;4983077;28;20820;-82
2023/03/15 05:48:53;;;;;;;6.40;0.90;;;;;;;;;;4980464;28;20168;-81
2023/03/15 05:51:19;;;;;;;7.00;1.20;;;;;;;;;;5003232;28;20112;-81
2023/03/15 05:53:45;;;;;;;8.73;1.20;;;;;;;;;;4996914;28;20223;-81
2023/03/15 05:56:11;;;;;;;14.10;2.75;;;;;;;;;;5004298;28;20052;-84
2023/03/15 05:58:37;;;;;;;10.90;1.38;;;;;;;;;;5007649;28;20083;-82
2023/03/15 06:01:04;;;;;;;14.77;1.65;;;;;;;;;;5003916;28;20048;-80
2023/03/15 06:03:30;;;;;;;9.02;2.30;;;;;;;;;;5011881;28;20043;-81
2023/03/15 06:05:57;;;;;;;9.32;1.05;;;;;;;;;;5015199;28;20047;-79
2023/03/15 06:08:23;;;;;;;10.65;1.30;;;;;;;;;;4994939;28;20045;-81
2023/03/15 06:10:49;;;;;;;5.38;1.10;;;;;;;;;;4989753;28;20037;-82
2023/03/15 06:13:15;;;;;;;6.45;1.30;;;;;;;;;;4994187;28;20703;-81
2023/03/15 06:15:41;;;;;;;10.02;1.35;;;;;;;;;;4987697;28;20680;-81
2023/03/15 06:18:08;;;;;;;5.90;1.60;;;;;;;;;;5006328;28;20398;-81
2023/03/15 06:20:34;;;;;;;11.25;1.80;;;;;;;;;;4992376;28;20057;-82
2023/03/15 06:23:00;;;;;;;6.20;1.17;;;;;;;;;;5005374;28;20052;-82
2023/03/15 06:25:26;;;;;;;10.63;1.27;;;;;;;;;;5003080;28;20140;-82
2023/03/15 06:27:52;;;;;;;7.60;1.10;;;;;;;;;;4999527;28;20038;-82
2023/03/15 06:30:19;;;;;;;7.82;1.30;;;;;;;;;;4988064;28;20466;-82
2023/03/15 06:32:45;;;;;;;12.60;1.73;;;;;;;;;;5002067;28;20051;-82
2023/03/15 06:35:11;;;;;;;7.35;1.50;;;;;;;;;;5001308;28;20130;-82
2023/03/15 06:37:38;;;;;;;9.10;1.23;;;;;;;;;;5001642;28;20087;-82
2023/03/15 06:40:08;;;;;;;9.10;1.38;;;;;;;;;;4992501;28;20489;-82
2023/03/15 06:42:35;;;;;;;5.50;1.20;;;;;;;;;;4987278;28;20083;-82
2023/03/15 06:45:02;;;;;;;5.65;1.10;;;;;;;;;;5004499;28;20424;-82
2023/03/15 06:47:28;;;;;;;6.63;1.20;;;;;;;;;;5002442;28;20041;-83
2023/03/15 06:49:54;;;;;;;119.38;12.00;;;;;;;;;;5017590;28;20087;-83
2023/03/15 06:52:20;;;;;;;8.43;1.30;;;;;;;;;;4989871;28;20057;-83
2023/03/15 06:54:46;;;;;;;13.27;1.60;;;;;;;;;;5003081;28;20076;-82
2023/03/15 06:57:13;;;;;;;9.77;1.45;;;;;;;;;;5005695;28;20067;-82
2023/03/15 06:59:39;;;;;;;4.40;0.90;;;;;;;;;;4999852;28;20647;-81
2023/03/15 07:02:05;;;;;;;16.77;2.30;;;;;;;;;;4994944;28;20041;-82
2023/03/15 07:04:32;;;;;;;54.28;4.97;;;;;;;;;;4978962;28;20068;-81
2023/03/15 07:06:58;;;;;;;15.63;2.00;;;;;;;;;;4990676;28;20131;-83
2023/03/15 07:09:24;;;;;;;33.10;2.80;;;;;;;;;;5007264;28;20442;-82
2023/03/15 07:11:50;;;;;;;12.32;1.40;;;;;;;;;;4992943;28;20033;-82
2023/03/15 07:14:16;;;;;;;17.65;3.78;;;;;;;;;;5012205;28;20237;-83
2023/03/15 07:16:42;;;;;;;16.20;2.20;;;;;;;;;;5011033;28;20041;-83
2023/03/15 07:19:08;;;;;;;14.18;2.50;;;;;;;;;;5006545;28;20053;-83
2023/03/15 07:21:34;;;;;;;22.98;2.15;;;;;;;;;;5006457;28;20041;-83
2023/03/15 07:24:01;;;;;;;15.48;2.83;;;;;;;;;;5007437;28;20049;-84
2023/03/15 07:26:27;;;;;;;9.73;1.80;;;;;;;;;;4974669;28;20136;-84
2023/03/15 07:28:53;;;;;;;11.50;1.98;;;;;;;;;;5010937;28;20090;-84
2023/03/15 07:31:19;;;;;;;65.45;7.20;;;;;;;;;;5001289;28;20040;-85
2023/03/15 07:33:45;;;;;;;10.02;1.50;;;;;;;;;;4991176;28;20676;-84
2023/03/15 07:36:11;;;;;;;8.82;1.35;;;;;;;;;;5010419;28;20041;-84
2023/03/15 07:38:37;;;;;;;16.02;2.50;;;;;;;;;;4990683;28;20076;-82
2023/03/15 07:41:05;;;;;;;10.60;1.90;;;;;;;;;;5004892;28;20123;-84
2023/03/15 07:43:31;;;;;;;11.20;1.95;;;;;;;;;;5018178;28;20078;-85
2023/03/15 07:45:57;;;;;;;12.07;2.53;;;;;;;;;;5006396;28;20075;-85
2023/03/15 07:48:24;;;;;;;7.30;1.80;;;;;;;;;;4980720;28;20489;-85
2023/03/15 07:50:50;;;;;;;15.93;2.20;;;;;;;;;;5016579;28;20083;-85
2023/03/15 07:53:16;;;;;;;11.75;2.30;;;;;;;;;;4986919;28;20048;-85
2023/03/15 07:55:42;;;;;;;26.77;4.45;;;;;;;;;;4991162;28;20485;-85
2023/03/15 07:58:08;;;;;;;41.53;4.93;;;;;;;;;;5017886;28;20128;-85
2023/03/15 08:00:34;;;;;;;6.95;1.63;;;;;;;;;;5018238;28;20038;-85
2023/03/15 08:03:00;;;;;;;14.90;1.90;;;;;;;;;;5000663;28;20788;-86
2023/03/15 08:05:27;;;;;;;10.90;2.03;;;;;;;;;;5020588;28;20183;-84
2023/03/15 08:07:53;;;;;;;13.98;2.55;;;;;;;;;;5018651;28;20126;-85
2023/03/15 08:10:20;;;;;;;36.85;3.80;;;;;;;;;;5011003;28;20971;-85
2023/03/15 08:12:46;;;;;;;10.85;2.13;;;;;;;;;;5004414;28;20053;-85
2023/03/15 08:15:13;;;;;;;7.78;1.40;;;;;;;;;;5021500;28;20091;-85
2023/03/15 08:17:39;;;;;;;50.03;3.92;;;;;;;;;;5001703;28;20060;-84
2023/03/15 08:20:09;;;;;;;20.70;2.20;;;;;;;;;;5003844;28;20042;-84
2023/03/15 08:22:35;;;;;;;27.17;3.15;;;;;;;;;;4987628;28;20231;-84
2023/03/15 08:25:01;;;;;;;29.77;3.47;;;;;;;;;;5009234;28;20040;-81
2023/03/15 08:27:27;;;;;;;48.38;4.63;;;;;;;;;;5005501;28;20046;-80
2023/03/15 08:29:53;;;;;;;15.75;2.08;;;;;;;;;;5002681;28;20048;-80
2023/03/15 08:32:20;;;;;;;16.15;2.45;;;;;;;;;;4995394;28;20516;-79
2023/03/15 08:34:46;;;;;;;10.95;2.10;;;;;;;;;;5002920;28;20056;-80
2023/03/15 08:37:12;;;;;;;12.38;1.58;;;;;;;;;;5018500;28;20095;-79
2023/03/15 08:39:39;;;;;;;12.80;1.85;;;;;;;;;;5006120;28;20036;-79
2023/03/15 08:42:05;;;;;;;8.05;1.60;;;;;;;;;;5004088;28;20444;-79
2023/03/15 08:44:31;;;;;;;14.10;2.72;;;;;;;;;;4995884;28;20060;-79
2023/03/15 08:46:57;;;;;;;10.57;2.20;;;;;;;;;;5019311;28;20049;-77
2023/03/15 08:49:24;;;;;;;18.00;2.25;;;;;;;;;;5017503;28;20066;-78
2023/03/15 08:51:50;;;;;;;11.40;2.05;;;;;;;;;;5021314;28;20041;-78
2023/03/15 08:54:17;;;;;;;12.93;1.65;;;;;;;;;;5019580;28;20766;-78
2023/03/15 08:56:43;;;;;;;13.90;2.08;;;;;;;;;;4999509;28;20059;-79
2023/03/15 08:59:10;;;;;;;13.40;2.55;;;;;;;;;;5018891;28;20061;-78
2023/03/15 09:01:38;;;;;;;17.67;2.33;;;;;;;;;;4988306;28;20516;-79
2023/03/15 09:04:05;;;;;;;17.10;1.95;;;;;;;;;;5018471;28;20207;-78
2023/03/15 09:06:31;;;;;;;10.23;1.80;;;;;;;;;;5017239;28;20164;-79
2023/03/15 09:08:57;;;;;;;11.30;1.80;;;;;;;;;;5018291;28;20045;-79
2023/03/15 09:11:23;;;;;;;6.90;1.45;;;;;;;;;;4989273;28;20425;-79
2023/03/15 09:13:49;;;;;;;6.97;1.48;;;;;;;;;;5002922;28;20049;-79
2023/03/15 09:16:15;;;;;;;14.95;2.03;;;;;;;;;;5004359;28;20061;-78
2023/03/15 09:18:42;;;;;;;9.60;2.00;;;;;;;;;;5007154;28;20551;-78
2023/03/15 09:21:09;;;;;;;13.23;2.00;;;;;;;;;;5025404;28;20050;-77
2023/03/15 09:23:35;;;;;;;8.07;1.40;;;;;;;;;;5016931;28;20068;-77
2023/03/15 09:26:01;;;;;;;9.25;1.10;;;;;;;;;;5008457;28;20072;-78
2023/03/15 09:28:28;;;;;;;14.35;1.40;;;;;;;;;;5010379;28;20122;-78
2023/03/15 09:30:54;;;;;;;12.18;2.00;;;;;;;;;;5013155;28;20132;-78
2023/03/15 09:33:21;;;;;;;14.68;2.53;;;;;;;;;;5014207;28;20092;-78
2023/03/15 09:35:51;;;;;;;10.82;1.55;;;;;;;;;;4988956;28;20055;-77
2023/03/15 09:38:17;;;;;;;11.73;1.50;;;;;;;;;;5011396;28;20053;-77
2023/03/15 09:40:44;;;;;;;9.30;2.47;;;;;;;;;;5022405;28;20436;-78
2023/03/15 09:43:17;;;;;;;13.85;1.88;;;;;;;;;;5002292;28;20075;-78
2023/03/15 09:45:59;;;;;;;10.05;1.75;;;;;;;;;;5021732;28;20371;-77
2023/03/15 09:48:25;;;;;;;7.57;1.50;;;;;;;;;;5021195;28;20414;-78
2023/03/15 09:50:59;;;;;;;11.50;2.17;;;;;;;;;;5019762;28;20053;-78
2023/03/15 09:53:25;;;;;;;;;;;;;;;;;;5021590;28;20604;-78
2023/03/15 09:55:52;;;;;;;17.15;2.05;;;;;;;;;;5019385;28;20364;-83
2023/03/15 09:58:21;;;;;;;12.43;1.80;;;;;;;;;;5003527;28;20451;-83
2023/03/15 10:00:57;;;;;;;12.95;2.15;;;;;;;;;;5021319;28;20040;-79
2023/03/15 10:03:36;;;;;;;9.73;2.45;;;;;;;;;;5018270;28;20059;-79
2023/03/15 10:06:07;;;;;;;10.05;1.63;;;;;;;;;;5006182;28;20049;-80
2023/03/15 10:08:33;;;;;;;9.00;1.42;;;;;;;;;;5021973;28;20354;-79
2023/03/15 10:11:14;;;;;;;18.08;2.58;;;;;;;;;;5019819;28;20056;-79
2023/03/15 10:13:46;;;;;;;11.88;2.63;;;;;;;;;;5017482;28;20508;-80
2023/03/15 10:16:32;;;;;;;7.07;1.58;;;;;;;;;;5016972;28;20143;-79
2023/03/15 10:19:11;;;;;;;13.55;1.58;;;;;;;;;;5008449;28;20058;-79
2023/03/15 10:21:52;;;;;;;8.93;1.45;;;;;;;;;;5019898;28;20501;-78
2023/03/15 10:24:37;;;;;;;7.93;1.73;;;;;;;;;;5002543;28;20086;-80
2023/03/15 10:27:12;;;;;;;10.55;2.03;;;;;;;;;;5003197;28;20052;-79
2023/03/15 10:29:39;;;;;;;12.25;1.70;;;;;;;;;;5004201;28;20043;-80
2023/03/15 10:32:05;;;;;;;12.10;1.90;;;;;;;;;;4996773;28;20049;-79
2023/03/15 10:34:31;;;;;;;10.18;1.75;;;;;;;;;;5004633;28;20045;-83
2023/03/15 10:36:57;;;;;;;9.05;1.80;;;;;;;;;;5005673;28;20052;-81
2023/03/15 10:39:24;;;;;;;7.35;1.50;;;;;;;;;;5019418;28;20509;-79
2023/03/15 10:41:51;;;;;;;5.05;1.25;;;;;;;;;;5003589;28;20037;-80
2023/03/15 10:44:19;;;;;;;13.27;2.13;;;;;;;;;;5019783;28;20041;-79
2023/03/15 10:47:08;;;;;;;11.13;1.63;;;;;;;;;;5011783;28;20379;-81
2023/03/15 10:49:43;;;;;;;18.08;2.47;;;;;;;;;;5005574;28;20140;-82
2023/03/15 10:52:30;;;;;;;14.40;1.60;;;;;;;;;;5028271;28;20048;-81
2023/03/15 10:54:56;;;;;;;13.15;2.55;;;;;;;;;;5020552;28;20091;-79
2023/03/15 10:57:25;;;;;;;8.95;1.77;;;;;;;;;;5005401;28;20654;-79
2023/03/15 10:59:57;;;;;;;9.23;1.98;;;;;;;;;;5020208;28;20176;-78
2023/03/15 11:02:24;;;;;;;7.82;1.60;;;;;;;;;;5010085;28;20041;-78
2023/03/15 11:05:00;;;;;;;8.27;1.98;;;;;;;;;;5007821;28;20055;-77
2023/03/15 11:07:27;;;;;;;15.02;2.13;;;;;;;;;;5020855;28;20489;-79
2023/03/15 11:09:54;;;;;;;7.60;1.45;;;;;;;;;;5021905;28;20041;-79
2023/03/15 11:12:26;;;;;;;15.18;2.25;;;;;;;;;;5004163;28;20100;-79
2023/03/15 11:14:57;;;;;;;13.30;1.85;;;;;;;;;;5007268;28;20055;-80
2023/03/15 11:17:25;;;;;;;10.68;1.77;;;;;;;;;;5020688;28;20087;-79
2023/03/15 11:19:56;;;;;;;9.90;1.40;;;;;;;;;;5004628;28;20087;-79
2023/03/15 11:22:23;;;;;;;9.15;2.63;;;;;;;;;;5037778;28;20072;-79
2023/03/15 11:24:49;;;;;;;7.97;1.80;;;;;;;;;;5005293;28;20072;-83
2023/03/15 11:27:16;;;;;;;9.18;1.67;;;;;;;;;;5021934;28;20254;-82
2023/03/15 11:29:46;;;;;;;9.35;1.58;;;;;;;;;;4990853;28;20056;-82
2023/03/15 11:32:20;;;;;;;6.63;1.73;;;;;;;;;;5009287;28;20033;-83
2023/03/15 11:34:56;;;;;;;7.55;1.65;;;;;;;;;;5004039;28;20041;-82
2023/03/15 11:37:28;;;;;;;11.52;1.42;;;;;;;;;;5005030;28;20045;-82
2023/03/15 11:40:24;;;;;;;8.35;1.83;;;;;;;;;;5014011;28;20045;-82
2023/03/15 11:43:02;;;;;;;8.13;1.60;;;;;;;;;;5024916;28;20487;-83
2023/03/15 11:45:35;;;;;;;8.57;1.42;;;;;;;;;;5002127;28;20206;-83
2023/03/15 11:48:04;;;;;;;6.32;1.55;;;;;;;;;;5019618;28;20088;-84
2023/03/15 11:50:31;;;;;;;5.43;1.63;;;;;;;;;;5020088;28;20544;-79
2023/03/15 11:53:02;;;;;;;9.88;2.33;;;;;;;;;;5022021;28;20124;-79
2023/03/15 11:55:28;;;;;;;8.77;2.00;;;;;;;;;;5019993;28;20065;-79
2023/03/15 11:58:18;;;;;;;6.22;1.88;;;;;;;;;;5003847;28;20045;-79
2023/03/15 12:00:50;;;;;;;8.30;2.17;;;;;;;;;;5003893;28;20095;-84
2023/03/15 12:03:33;;;;;;;8.70;1.42;;;;;;;;;;5004651;28;20075;-81
2023/03/15 12:06:05;;;;;;;5.15;1.42;;;;;;;;;;5003834;28;20072;-83
2023/03/15 12:08:42;;;;;;;10.55;1.98;;;;;;;;;;5004527;28;20033;-79
2023/03/15 12:11:20;;;;;;;4.68;1.20;;;;;;;;;;5016190;28;20075;-79
2023/03/15 12:13:52;;;;;;;6.95;1.73;;;;;;;;;;5002745;28;20044;-78
2023/03/15 12:16:22;;;;;;;8.70;1.40;;;;;;;;;;5018037;28;20045;-78
2023/03/15 12:18:49;;;;;;;8.52;1.80;;;;;;;;;;5020703;28;20137;-79
2023/03/15 12:21:41;;;;;;;7.72;1.60;;;;;;;;;;5016586;28;20541;-79
2023/03/15 12:24:14;;;;;;;5.55;1.45;;;;;;;;;;5001984;28;20513;-79
2023/03/15 12:26:42;;;;;;;7.72;1.30;;;;;;;;;;5019514;28;20273;-80
2023/03/15 12:29:27;;;;;;;10.68;2.15;;;;;;;;;;5017587;28;20064;-79
2023/03/15 12:31:59;;;;;;;11.75;1.98;;;;;;;;;;4999622;28;20073;-80
2023/03/15 12:34:36;;;;;;;8.38;1.60;;;;;;;;;;5007779;28;20064;-80
2023/03/15 12:37:05;;;;;;;5.47;1.52;;;;;;;;;;5017431;28;20148;-79
2023/03/15 12:39:37;;;;;;;7.60;1.75;;;;;;;;;;5016549;28;20128;-80
2023/03/15 12:42:03;;;;;;;10.80;1.83;;;;;;;;;;5006280;28;20037;-79
2023/03/15 12:44:33;;;;;;;9.27;1.42;;;;;;;;;;5003541;28;20398;-79
2023/03/15 12:47:03;;;;;;;9.82;1.70;;;;;;;;;;5023419;28;20080;-80
2023/03/15 12:49:40;;;;;;;11.55;1.52;;;;;;;;;;5015594;28;20044;-79
2023/03/15 12:52:12;;;;;;;9.25;1.80;;;;;;;;;;4993125;28;20053;-78
2023/03/15 12:54:44;;;;;;;7.45;1.40;;;;;;;;;;5013484;28;20046;-79
2023/03/15 12:57:16;;;;;;;10.55;1.60;;;;;;;;;;5003204;28;20076;-79
2023/03/15 12:59:45;;;;;;;6.88;1.40;;;;;;;;;;5000754;28;20171;-80
2023/03/15 13:02:30;;;;;;;5.35;1.67;;;;;;;;;;5017235;28;20041;-80
2023/03/15 13:05:08;;;;;;;6.75;1.55;;;;;;;;;;5015389;28;20044;-79
2023/03/15 13:07:37;;;;;;;8.65;1.50;;;;;;;;;;5018890;28;20037;-79
2023/03/15 13:10:22;;;;;;;9.10;1.40;;;;;;;;;;5003335;28;20493;-81
2023/03/15 13:12:56;;;;;;;8.70;1.40;;;;;;;;;;5008054;28;20132;-79
2023/03/15 13:15:36;;;;;;;5.88;1.60;;;;;;;;;;5011658;28;20477;-78
2023/03/15 13:18:20;;;;;;;7.40;1.70;;;;;;;;;;5010051;28;20045;-78
2023/03/15 13:21:05;;;;;;;5.97;1.67;;;;;;;;;;4996648;28;20048;-79
2023/03/15 13:23:33;;;;;;;4.70;1.30;;;;;;;;;;4996432;28;20048;-78
2023/03/15 13:25:59;;;;;;;5.13;1.55;;;;;;;;;;5008907;28;20111;-79
2023/03/15 13:28:35;;;;;;;8.82;1.80;;;;;;;;;;5016827;28;20385;-78
2023/03/15 13:31:09;;;;;;;5.53;1.17;;;;;;;;;;5014174;28;20615;-78
2023/03/15 13:33:35;;;;;;;5.18;1.20;;;;;;;;;;4997211;28;20138;-77
2023/03/15 13:36:04;;;;;;;8.75;1.40;;;;;;;;;;5016411;28;20045;-78
2023/03/15 13:38:30;;;;;;;8.15;1.55;;;;;;;;;;5012879;28;20132;-78
2023/03/15 13:40:58;;;;;;;7.30;1.33;;;;;;;;;;4997099;28;20045;-77
2023/03/15 13:43:29;;;;;;;9.80;1.40;;;;;;;;;;4997836;28;20040;-79
2023/03/15 13:45:57;;;;;;;8.95;1.90;;;;;;;;;;5000328;28;20060;-78
2023/03/15 13:48:23;;;;;;;7.90;2.42;;;;;;;;;;5001727;28;20408;-78
2023/03/15 13:50:49;;;;;;;4.15;1.40;;;;;;;;;;4983840;28;20169;-79
2023/03/15 13:53:21;;;;;;;8.55;1.33;;;;;;;;;;5011759;28;20049;-78
2023/03/15 13:55:50;;;;;;;10.55;1.80;;;;;;;;;;4997690;28;20132;-77
2023/03/15 13:58:16;;;;;;;4.32;1.30;;;;;;;;;;4996149;28;20049;-78
2023/03/15 14:00:42;;;;;;;10.52;1.67;;;;;;;;;;5000061;28;20033;-78
2023/03/15 14:03:12;;;;;;;6.95;1.50;;;;;;;;;;4979759;28;20584;-79
2023/03/15 14:05:46;;;;;;;5.80;1.00;;;;;;;;;;5000933;28;20493;-77
2023/03/15 14:08:12;;;;;;;;;;;;;;;;;;5000494;28;20041;-78
2023/03/15 14:10:39;;;;;;;6.65;1.30;;;;;;;;;;4994758;28;20381;-78
2023/03/15 14:13:20;;;;;;;8.65;1.20;;;;;;;;;;5003877;28;20092;-78
2023/03/15 14:15:46;;;;;;;11.82;3.22;;;;;;;;;;5001623;28;20081;-79
2023/03/15 14:18:19;;;;;;;7.65;1.50;;;;;;;;;;5017536;28;20122;-77
2023/03/15 14:21:11;;;;;;;6.75;1.55;;;;;;;;;;5007106;28;20052;-78
2023/03/15 14:23:45;;;;;;;7.10;1.33;;;;;;;;;;5004079;28;20132;-78
2023/03/15 14:26:19;;;;;;;5.03;1.20;;;;;;;;;;5009577;28;20741;-78
2023/03/15 14:28:54;;;;;;;6.10;1.20;;;;;;;;;;5007369;28;20049;-78
2023/03/15 14:31:22;;;;;;;8.00;1.60;;;;;;;;;;5012540;28;20299;-77
2023/03/15 14:33:53;;;;;;;3.72;1.10;;;;;;;;;;5011918;28;20152;-77
2023/03/15 14:36:46;;;;;;;3.45;1.10;;;;;;;;;;4998032;28;20175;-78
2023/03/15 14:39:18;;;;;;;8.50;1.15;;;;;;;;;;5011848;28;20061;-78
2023/03/15 14:41:44;;;;;;;6.22;1.23;;;;;;;;;;5013727;28;20053;-78
2023/03/15 14:44:10;;;;;;;8.40;1.38;;;;;;;;;;5002346;28;20076;-77
2023/03/15 14:46:36;;;;;;;5.72;1.27;;;;;;;;;;4997028;28;20072;-78